Time,TemperatureF,DewpointF,PressureIn,WindDirection,WindDirectionDegrees,WindSpeedMPH,WindSpeedGustMPH,Humidity,HourlyPrecipIn,Conditions,Clouds,dailyrainin,SoftwareType,DateUTC
2013-04-14 00:06:00,45.7,36.5,29.81,South,180,0.0,-999.0,70,-99.99,,,0.00,Acu-Link.com,2013-04-14 04:06:00,
2013-04-14 00:36:00,44.1,35.7,29.81,South,180,0.0,-999.0,72,-99.99,,,0.00,Acu-Link.com,2013-04-14 04:36:00,
2013-04-14 00:51:00,43.3,35.9,29.81,SSW,202,0.0,-999.0,75,-99.99,,,0.00,Acu-Link.com,2013-04-14 04:51:00,
2013-04-14 01:06:00,43.0,36.9,29.81,NNW,337,0.0,-999.0,79,-99.99,,,0.00,Acu-Link.com,2013-04-14 05:06:00,
2013-04-14 01:37:00,42.3,36.9,29.81,SSW,202,0.0,-999.0,81,-99.99,,,0.00,Acu-Link.com,2013-04-14 05:37:00,
2013-04-14 01:52:00,41.9,36.8,29.81,SSW,202,0.0,-999.0,82,-99.99,,,0.00,Acu-Link.com,2013-04-14 05:52:00,
2013-04-14 02:07:00,42.1,36.7,29.82,East,90,0.0,-999.0,81,-99.99,,,0.00,Acu-Link.com,2013-04-14 06:07:00,
2013-04-14 02:22:00,41.5,37.0,29.81,South,180,0.0,-999.0,84,-99.99,,,0.00,Acu-Link.com,2013-04-14 06:22:00,
2013-04-14 02:38:00,41.4,36.9,29.82,South,180,0.0,-999.0,84,-99.99,,,0.00,Acu-Link.com,2013-04-14 06:38:00,
2013-04-14 02:53:00,41.4,37.5,29.81,SSE,157,0.0,-999.0,86,-99.99,,,0.00,Acu-Link.com,2013-04-14 06:53:00,
2013-04-14 03:08:00,40.8,36.9,29.82,West,270,0.0,-999.0,86,-99.99,,,0.00,Acu-Link.com,2013-04-14 07:08:00,
2013-04-14 03:23:00,40.3,36.7,29.81,West,270,0.0,-999.0,87,-99.99,,,0.00,Acu-Link.com,2013-04-14 07:23:00,
2013-04-14 03:39:00,40.5,37.2,29.81,South,180,0.0,-999.0,88,-99.99,,,0.00,Acu-Link.com,2013-04-14 07:39:00,
2013-04-14 03:54:00,39.6,36.9,29.81,ENE,67,0.0,-999.0,90,-99.99,,,0.00,Acu-Link.com,2013-04-14 07:54:00,
2013-04-14 04:09:00,39.4,36.7,29.82,ENE,67,0.0,-999.0,90,-99.99,,,0.00,Acu-Link.com,2013-04-14 08:09:00,
2013-04-14 04:24:00,39.0,36.6,29.81,ENE,67,0.0,-999.0,91,-99.99,,,0.00,Acu-Link.com,2013-04-14 08:24:00,
2013-04-14 04:39:00,38.5,36.1,29.81,ENE,67,0.0,-999.0,91,-99.99,,,0.00,Acu-Link.com,2013-04-14 08:39:00,
2013-04-14 04:55:00,38.7,36.6,29.81,South,180,0.0,-999.0,92,-99.99,,,0.00,Acu-Link.com,2013-04-14 08:55:00,
2013-04-14 05:10:00,37.9,35.8,29.82,East,90,0.0,-999.0,92,-99.99,,,0.00,Acu-Link.com,2013-04-14 09:10:00,
2013-04-14 05:25:00,37.6,35.8,29.82,East,90,0.0,-999.0,93,-99.99,,,0.00,Acu-Link.com,2013-04-14 09:25:00,
2013-04-14 05:40:00,38.1,36.5,29.81,South,180,0.0,-999.0,94,-99.99,,,0.00,Acu-Link.com,2013-04-14 09:40:00,
2013-04-14 05:55:00,37.2,35.4,29.80,South,180,0.0,-999.0,93,-99.99,,,0.00,Acu-Link.com,2013-04-14 09:55:00,
2013-04-14 06:10:00,37.4,35.8,29.80,South,180,0.0,-999.0,94,-99.99,,,0.00,Acu-Link.com,2013-04-14 10:10:00,
2013-04-14 06:25:00,37.2,35.9,29.79,South,180,0.0,-999.0,95,-99.99,,,0.00,Acu-Link.com,2013-04-14 10:25:00,
2013-04-14 06:41:00,38.7,36.9,29.80,WNW,292,0.0,-999.0,93,-99.99,,,0.00,Acu-Link.com,2013-04-14 10:41:00,
2013-04-14 06:56:00,38.8,36.7,29.81,South,180,0.0,-999.0,92,-99.99,,,0.00,Acu-Link.com,2013-04-14 10:56:00,
2013-04-14 07:11:00,38.1,36.8,29.81,NW,315,0.0,-999.0,95,-99.99,,,0.00,Acu-Link.com,2013-04-14 11:11:00,
2013-04-14 07:27:00,39.4,37.5,29.80,NW,315,0.0,-999.0,93,-99.99,,,0.00,Acu-Link.com,2013-04-14 11:27:00,
2013-04-14 07:42:00,40.3,38.2,29.82,NNW,337,0.0,-999.0,92,-99.99,,,0.00,Acu-Link.com,2013-04-14 11:42:00,
2013-04-14 07:57:00,42.4,39.1,29.82,NNE,22,1.7,-999.0,88,-99.99,,,0.00,Acu-Link.com,2013-04-14 11:57:00,
2013-04-14 08:12:00,42.8,38.6,29.83,ENE,67,3.7,-999.0,85,-99.99,,,0.00,Acu-Link.com,2013-04-14 12:12:00,
2013-04-14 08:28:00,43.9,39.4,29.83,East,90,2.7,-999.0,84,-99.99,,,0.00,Acu-Link.com,2013-04-14 12:28:00,
2013-04-14 08:43:00,46.0,40.5,29.83,South,180,3.2,-999.0,81,-99.99,,,0.00,Acu-Link.com,2013-04-14 12:43:00,
2013-04-14 08:58:00,48.6,41.7,29.83,SSE,157,1.7,-999.0,77,-99.99,,,0.00,Acu-Link.com,2013-04-14 12:58:00,
2013-04-14 09:14:00,50.9,41.5,29.82,SSE,157,1.7,-999.0,70,-99.99,,,0.00,Acu-Link.com,2013-04-14 13:14:00,
2013-04-14 09:29:00,52.3,42.4,29.82,NNW,337,2.7,-999.0,69,-99.99,,,0.00,Acu-Link.com,2013-04-14 13:29:00,
2013-04-14 09:44:00,53.4,41.9,29.82,ESE,112,3.7,-999.0,65,-99.99,,,0.00,Acu-Link.com,2013-04-14 13:44:00,
2013-04-14 09:59:00,54.3,42.4,29.81,NE,45,3.7,-999.0,64,-99.99,,,0.00,Acu-Link.com,2013-04-14 13:59:00,
2013-04-14 10:15:00,55.2,42.8,29.81,SSE,157,2.7,-999.0,63,-99.99,,,0.00,Acu-Link.com,2013-04-14 14:15:00,
2013-04-14 10:30:00,57.2,43.4,29.80,ESE,112,2.2,-999.0,60,-99.99,,,0.00,Acu-Link.com,2013-04-14 14:30:00,
2013-04-14 10:45:00,58.1,42.9,29.79,SE,135,2.2,-999.0,57,-99.99,,,0.00,Acu-Link.com,2013-04-14 14:45:00,
2013-04-14 11:00:00,59.2,43.0,29.79,SSE,157,3.2,-999.0,55,-99.99,,,0.00,Acu-Link.com,2013-04-14 15:00:00,
2013-04-14 11:15:00,60.4,44.2,29.79,SSE,157,4.7,-999.0,55,-99.99,,,0.00,Acu-Link.com,2013-04-14 15:15:00,
2013-04-14 11:30:00,61.2,46.3,29.79,South,180,2.7,-999.0,58,-99.99,,,0.00,Acu-Link.com,2013-04-14 15:30:00,
2013-04-14 12:01:00,63.0,44.6,29.78,South,180,4.2,-999.0,51,-99.99,,,0.00,Acu-Link.com,2013-04-14 16:01:00,
2013-04-14 12:16:00,63.3,44.3,29.77,SSE,157,2.7,-999.0,50,-99.99,,,0.00,Acu-Link.com,2013-04-14 16:16:00,
2013-04-14 12:31:00,64.9,45.8,29.76,ESE,112,1.7,-999.0,50,-99.99,,,0.00,Acu-Link.com,2013-04-14 16:31:00,
2013-04-14 12:47:00,64.8,45.2,29.76,SE,135,3.2,-999.0,49,-99.99,,,0.00,Acu-Link.com,2013-04-14 16:47:00,
2013-04-14 13:02:00,65.7,46.0,29.75,ESE,112,5.8,-999.0,49,-99.99,,,0.00,Acu-Link.com,2013-04-14 17:02:00,
2013-04-14 13:17:00,66.2,47.0,29.75,ESE,112,4.7,-999.0,50,-99.99,,,0.00,Acu-Link.com,2013-04-14 17:17:00,
2013-04-14 13:32:00,67.8,45.7,29.74,ESE,112,4.7,-999.0,45,-99.99,,,0.00,Acu-Link.com,2013-04-14 17:32:00,
2013-04-14 13:47:00,67.8,46.3,29.74,SE,135,1.1,-999.0,46,-99.99,,,0.00,Acu-Link.com,2013-04-14 17:47:00,
2013-04-14 14:03:00,68.9,46.7,29.74,SSE,157,2.7,-999.0,45,-99.99,,,0.00,Acu-Link.com,2013-04-14 18:03:00,
2013-04-14 14:18:00,69.3,47.0,29.73,NNE,22,3.2,-999.0,45,-99.99,,,0.00,Acu-Link.com,2013-04-14 18:18:00,
2013-04-14 14:34:00,70.3,47.3,29.72,SE,135,3.7,-999.0,44,-99.99,,,0.00,Acu-Link.com,2013-04-14 18:34:00,
2013-04-14 14:49:00,71.8,46.8,29.71,WSW,247,2.2,-999.0,41,-99.99,,,0.00,Acu-Link.com,2013-04-14 18:49:00,
2013-04-14 15:04:00,72.3,48.5,29.70,SE,135,0.0,-999.0,43,-99.99,,,0.00,Acu-Link.com,2013-04-14 19:04:00,
2013-04-14 15:19:00,71.2,45.6,29.70,SE,135,3.7,-999.0,40,-99.99,,,0.00,Acu-Link.com,2013-04-14 19:19:00,
2013-04-14 15:34:00,71.6,46.0,29.69,ENE,67,2.2,-999.0,40,-99.99,,,0.00,Acu-Link.com,2013-04-14 19:34:00,
2013-04-14 15:49:00,72.0,45.7,29.69,South,180,3.7,-999.0,39,-99.99,,,0.00,Acu-Link.com,2013-04-14 19:49:00,
2013-04-14 16:05:00,71.2,45.0,29.68,NE,45,3.7,-999.0,39,-99.99,,,0.00,Acu-Link.com,2013-04-14 20:05:00,
2013-04-14 16:20:00,72.3,47.3,29.68,SE,135,3.7,-999.0,41,-99.99,,,0.00,Acu-Link.com,2013-04-14 20:20:00,
2013-04-14 16:35:00,72.9,45.8,29.68,SW,225,1.7,-999.0,38,-99.99,,,0.00,Acu-Link.com,2013-04-14 20:35:00,
2013-04-14 16:50:00,73.4,44.8,29.67,SSE,157,5.8,-999.0,36,-99.99,,,0.00,Acu-Link.com,2013-04-14 20:50:00,
2013-04-14 17:06:00,72.9,44.4,29.67,South,180,4.2,-999.0,36,-99.99,,,0.00,Acu-Link.com,2013-04-14 21:06:00,
2013-04-14 17:21:00,72.9,42.1,29.66,South,180,3.2,-999.0,33,-99.99,,,0.00,Acu-Link.com,2013-04-14 21:21:00,
2013-04-14 17:36:00,72.7,42.7,29.66,South,180,2.2,-999.0,34,-99.99,,,0.00,Acu-Link.com,2013-04-14 21:36:00,
2013-04-14 18:06:00,72.9,46.5,29.65,East,90,0.0,-999.0,39,-99.99,,,0.00,Acu-Link.com,2013-04-14 22:06:00,
2013-04-14 18:22:00,71.6,47.9,29.65,ENE,67,0.0,-999.0,43,-99.99,,,0.00,Acu-Link.com,2013-04-14 22:22:00,
2013-04-14 18:37:00,71.1,46.8,29.65,South,180,0.0,-999.0,42,-99.99,,,0.00,Acu-Link.com,2013-04-14 22:37:00,
2013-04-14 18:52:00,70.2,47.3,29.65,East,90,0.0,-999.0,44,-99.99,,,0.00,Acu-Link.com,2013-04-14 22:52:00,
2013-04-14 19:07:00,68.9,47.3,29.65,ENE,67,0.0,-999.0,46,-99.99,,,0.00,Acu-Link.com,2013-04-14 23:07:00,
2013-04-14 19:22:00,67.8,48.5,29.65,ESE,112,0.0,-999.0,50,-99.99,,,0.00,Acu-Link.com,2013-04-14 23:22:00,
2013-04-14 19:38:00,66.9,47.6,29.65,South,180,0.0,-999.0,50,-99.99,,,0.00,Acu-Link.com,2013-04-14 23:38:00,
2013-04-14 19:53:00,67.1,46.2,29.65,SSW,202,0.0,-999.0,47,-99.99,,,0.00,Acu-Link.com,2013-04-14 23:53:00,
2013-04-14 20:08:00,65.8,45.0,29.65,SSE,157,0.0,-999.0,47,-99.99,,,0.00,Acu-Link.com,2013-04-15 00:08:00,
2013-04-14 20:24:00,67.3,44.6,29.67,SSE,157,5.8,-999.0,44,-99.99,,,0.00,Acu-Link.com,2013-04-15 00:24:00,
2013-04-14 20:39:00,66.4,44.4,29.68,South,180,6.3,-999.0,45,-99.99,,,0.00,Acu-Link.com,2013-04-15 00:39:00,
2013-04-14 20:54:00,65.8,44.4,29.69,SSW,202,5.8,-999.0,46,-99.99,,,0.00,Acu-Link.com,2013-04-15 00:54:00,
2013-04-14 21:09:00,65.3,45.6,29.70,SSW,202,7.8,-999.0,49,-99.99,,,0.00,Acu-Link.com,2013-04-15 01:09:00,
2013-04-14 21:24:00,64.2,45.7,29.70,South,180,8.3,-999.0,51,-99.99,,,0.00,Acu-Link.com,2013-04-15 01:24:00,
2013-04-14 21:39:00,61.2,48.9,29.71,SE,135,4.7,-999.0,64,-99.99,,,0.00,Acu-Link.com,2013-04-15 01:39:00,
2013-04-14 22:10:00,59.2,49.8,29.70,South,180,2.2,-999.0,71,-99.99,,,0.00,Acu-Link.com,2013-04-15 02:10:00,
2013-04-14 22:25:00,59.2,49.4,29.70,ESE,112,4.2,-999.0,70,-99.99,,,0.00,Acu-Link.com,2013-04-15 02:25:00,
2013-04-14 22:41:00,59.0,49.6,29.70,ESE,112,3.7,-999.0,71,-99.99,,,0.00,Acu-Link.com,2013-04-15 02:41:00,
2013-04-14 22:56:00,59.0,49.6,29.69,South,180,2.7,-999.0,71,-99.99,,,0.00,Acu-Link.com,2013-04-15 02:56:00,
2013-04-14 23:11:00,59.0,49.2,29.70,South,180,4.2,-999.0,70,-99.99,,,0.00,Acu-Link.com,2013-04-15 03:11:00,
2013-04-14 23:27:00,59.2,49.0,29.71,SSE,157,6.3,-999.0,69,-99.99,,,0.00,Acu-Link.com,2013-04-15 03:27:00,
2013-04-14 23:42:00,59.2,48.6,29.71,SW,225,3.2,-999.0,68,-99.99,,,0.00,Acu-Link.com,2013-04-15 03:42:00,
2013-04-14 23:57:00,59.0,48.8,29.72,SSW,202,3.2,-999.0,69,-99.99,,,0.00,Acu-Link.com,2013-04-15 03:57:00,